createdAt,value
2023-03-13T00:01:22.911Z,100092.31
2023-03-13T00:03:50.146Z,100094.81
2023-03-13T00:06:17.786Z,100091.34
2023-03-13T00:08:45.075Z,100085.09
2023-03-13T00:11:13.844Z,100065.94
2023-03-13T00:13:41.597Z,100067.72
2023-03-13T00:16:11.020Z,100066.25
2023-03-13T00:18:38.962Z,100067.91
2023-03-13T00:21:08.214Z,100066.81
2023-03-13T00:23:36.171Z,100066.91
2023-03-13T00:26:06.330Z,100063.03
2023-03-13T00:28:34.888Z,100063.59
2023-03-13T00:31:10.014Z,100060.03
2023-03-13T00:33:42.270Z,100055.59
2023-03-13T00:36:11.852Z,100064.06
2023-03-13T00:38:39.498Z,100060.59
2023-03-13T00:41:13.122Z,100057.97
2023-03-13T00:43:41.871Z,100059.69
2023-03-13T00:46:09.642Z,100054.16
2023-03-13T00:48:37.348Z,100046.19
2023-03-13T00:51:05.498Z,100033.31
2023-03-13T00:53:32.736Z,100041.34
2023-03-13T00:56:02.513Z,100028.94
2023-03-13T00:58:32.666Z,100025.75
2023-03-13T01:01:11.063Z,100016.22
2023-03-13T01:03:39.201Z,100017.97
2023-03-13T01:06:09.152Z,100015.28
2023-03-13T01:08:37.176Z,100006.41
2023-03-13T01:11:10.800Z,100010.78
2023-03-13T01:13:38.531Z,100022.00
2023-03-13T01:16:07.936Z,100016.66
2023-03-13T01:18:37.425Z,100012.31
2023-03-13T01:21:05.055Z,100014.13
2023-03-13T01:23:32.607Z,100007.03
2023-03-13T01:25:59.895Z,100008.81
2023-03-13T01:28:28.145Z,100013.22
2023-03-13T01:30:55.419Z,100020.06
2023-03-13T01:33:22.995Z,100021.03
2023-03-13T01:35:50.422Z,100009.38
2023-03-13T01:38:17.836Z,100015.75
2023-03-13T01:40:47.410Z,100012.00
2023-03-13T01:43:26.659Z,100006.47
2023-03-13T01:46:02.131Z,99991.50
2023-03-13T01:48:47.304Z,99990.09
2023-03-13T01:51:21.233Z,99984.88
2023-03-13T01:54:02.125Z,99983.09
2023-03-13T01:56:35.088Z,99966.63
2023-03-13T01:59:03.360Z,99966.75
2023-03-13T02:01:30.903Z,99965.22
2023-03-13T02:03:58.890Z,99966.03
2023-03-13T02:06:30.244Z,99962.47
2023-03-13T02:09:05.254Z,99961.75
2023-03-13T02:11:52.651Z,99959.59
2023-03-13T02:14:22.449Z,99955.75
2023-03-13T02:16:52.122Z,99941.53
2023-03-13T02:19:33.314Z,99941.81
2023-03-13T02:22:24.061Z,99944.97
2023-03-13T02:25:04.177Z,99941.53
2023-03-13T02:27:31.399Z,99934.28
2023-03-13T02:29:59.292Z,99927.09
2023-03-13T02:32:27.842Z,99929.94
2023-03-13T02:34:58.684Z,99922.81
2023-03-13T02:37:27.916Z,99923.72
2023-03-13T02:39:55.436Z,99923.47
2023-03-13T02:42:23.878Z,99916.06
2023-03-13T02:44:52.234Z,99911.47
2023-03-13T02:47:21.512Z,99909.72
2023-03-13T02:49:48.995Z,99902.75
2023-03-13T02:52:32.241Z,99905.13
2023-03-13T02:55:03.380Z,99889.66
2023-03-13T02:57:31.807Z,99889.34
2023-03-13T02:59:59.304Z,99878.13
2023-03-13T03:02:26.509Z,99885.19
2023-03-13T03:04:54.006Z,99882.53
2023-03-13T03:07:21.226Z,99877.09
2023-03-13T03:09:48.465Z,99877.09
2023-03-13T03:12:15.733Z,99872.59
2023-03-13T03:14:43.012Z,99874.03
2023-03-13T03:17:10.372Z,99872.94
2023-03-13T03:19:37.613Z,99868.97
2023-03-13T03:22:04.923Z,99866.25
2023-03-13T03:24:32.221Z,99863.47
2023-03-13T03:26:59.693Z,99865.38
2023-03-13T03:29:27.890Z,99855.63
2023-03-13T03:31:55.419Z,99861.78
2023-03-13T03:34:23.069Z,99856.00
2023-03-13T03:36:50.348Z,99849.72
2023-03-13T03:39:17.993Z,99846.00
2023-03-13T03:41:45.234Z,99844.28
2023-03-13T03:44:12.530Z,99838.09
2023-03-13T03:46:39.768Z,99839.16
2023-03-13T03:49:07.313Z,99828.19
2023-03-13T03:51:34.581Z,99821.28
2023-03-13T03:54:01.856Z,99817.63
2023-03-13T03:56:29.035Z,99816.53
2023-03-13T03:58:56.316Z,99811.41
2023-03-13T04:01:23.536Z,99805.25
2023-03-13T04:03:50.759Z,99803.34
2023-03-13T04:06:18.008Z,99801.78
2023-03-13T04:08:45.236Z,99791.72
2023-03-13T04:11:12.483Z,99783.50
2023-03-13T04:13:39.686Z,99789.59
2023-03-13T04:16:10.724Z,99780.94
2023-03-13T04:18:38.007Z,99785.25
2023-03-13T04:21:06.848Z,99778.31
2023-03-13T04:23:34.375Z,99773.50
2023-03-13T04:26:01.627Z,99777.03
2023-03-13T04:28:28.853Z,99764.97
2023-03-13T04:30:57.499Z,99761.63
2023-03-13T04:33:25.529Z,99753.50
2023-03-13T04:36:17.646Z,99749.25
2023-03-13T04:38:44.939Z,99757.41
2023-03-13T04:41:12.253Z,99756.13
2023-03-13T04:43:39.534Z,99747.41
2023-03-13T04:46:06.878Z,99737.66
2023-03-13T04:48:34.255Z,99737.78
2023-03-13T04:51:01.621Z,99733.72
2023-03-13T04:53:28.839Z,99724.81
2023-03-13T04:55:56.101Z,99715.13
2023-03-13T04:58:23.381Z,99708.34
2023-03-13T05:00:50.586Z,99709.19
2023-03-13T05:03:17.782Z,99707.44
2023-03-13T05:05:45.084Z,99696.03
2023-03-13T05:08:13.149Z,99706.72
2023-03-13T05:10:42.175Z,99692.56
2023-03-13T05:13:09.647Z,99694.28
2023-03-13T05:15:37.148Z,99684.91
2023-03-13T05:18:04.490Z,99684.91
2023-03-13T05:20:31.698Z,99679.69
2023-03-13T05:22:59.050Z,99688.16
2023-03-13T05:25:26.348Z,99664.41
2023-03-13T05:27:53.610Z,99668.72
2023-03-13T05:30:21.005Z,99660.22
2023-03-13T05:32:48.331Z,99653.38
2023-03-13T05:35:15.636Z,99648.94
2023-03-13T05:37:43.418Z,99635.75
2023-03-13T05:40:11.239Z,99629.66
2023-03-13T05:42:38.431Z,99622.78
2023-03-13T05:45:06.262Z,99617.28
2023-03-13T05:47:33.693Z,99609.66
2023-03-13T05:50:01.211Z,99601.16
2023-03-13T05:52:29.635Z,99607.97
2023-03-13T05:54:56.875Z,99600.19
2023-03-13T05:57:31.230Z,99599.31
2023-03-13T05:59:59.543Z,99598.47
2023-03-13T06:02:27.037Z,99598.44
2023-03-13T06:04:54.480Z,99587.88
2023-03-13T06:07:21.896Z,99583.59
2023-03-13T06:09:55.674Z,99574.84
2023-03-13T06:12:23.011Z,99568.81
2023-03-13T06:14:50.188Z,99566.19
2023-03-13T06:17:17.646Z,99564.75
2023-03-13T06:19:46.144Z,99561.78
2023-03-13T06:22:13.346Z,99563.38
2023-03-13T06:24:40.813Z,99551.13
2023-03-13T06:27:08.497Z,99543.28
2023-03-13T06:29:35.714Z,99538.22
2023-03-13T06:32:03.167Z,99532.25
2023-03-13T06:34:30.791Z,99520.66
2023-03-13T06:36:59.042Z,99515.41
2023-03-13T06:39:26.427Z,99503.31
2023-03-13T06:41:53.681Z,99503.03
2023-03-13T06:44:21.060Z,99490.78
2023-03-13T06:46:48.814Z,99492.38
2023-03-13T06:49:17.317Z,99487.03
2023-03-13T06:51:44.650Z,99484.63
2023-03-13T06:54:11.969Z,99481.78
2023-03-13T06:56:39.443Z,99480.53
2023-03-13T06:59:06.880Z,99483.88
2023-03-13T07:01:34.195Z,99506.63
2023-03-13T07:04:01.690Z,99496.25
2023-03-13T07:06:29.183Z,99495.25
2023-03-13T07:08:56.818Z,99486.50
2023-03-13T07:11:25.279Z,99480.31
2023-03-13T07:14:06.534Z,99467.22
2023-03-13T07:16:45.568Z,99472.75
2023-03-13T07:19:13.202Z,99466.09
2023-03-13T07:21:40.549Z,99460.97
2023-03-13T07:24:08.538Z,99465.78
2023-03-13T07:26:35.856Z,99453.03
2023-03-13T07:29:05.005Z,99454.06
2023-03-13T07:31:35.216Z,99451.75
2023-03-13T07:34:02.536Z,99451.19
2023-03-13T07:36:30.912Z,99445.03
2023-03-13T07:38:58.337Z,99437.09
2023-03-13T07:41:25.694Z,99435.47
2023-03-13T07:43:52.942Z,99439.59
2023-03-13T07:46:29.500Z,99427.06
2023-03-13T07:48:56.889Z,99429.22
2023-03-13T07:51:42.176Z,99425.78
2023-03-13T07:54:10.755Z,99423.09
2023-03-13T07:56:42.824Z,99403.44
2023-03-13T07:59:11.606Z,99417.09
2023-03-13T08:01:38.943Z,99416.19
2023-03-13T08:04:06.263Z,99405.59
2023-03-13T08:06:37.456Z,99404.38
2023-03-13T08:09:06.647Z,99398.66
2023-03-13T08:11:33.926Z,99397.50
2023-03-13T08:14:01.356Z,99393.66
2023-03-13T08:16:30.495Z,99396.63
2023-03-13T08:19:00.711Z,99390.63
2023-03-13T08:21:30.124Z,99392.91
2023-03-13T08:23:59.348Z,99385.91
2023-03-13T08:26:27.986Z,99365.13
2023-03-13T08:28:57.637Z,99379.78
2023-03-13T08:31:27.861Z,99371.59
2023-03-13T08:33:55.294Z,99374.16
2023-03-13T08:36:28.049Z,99365.97
2023-03-13T08:38:57.977Z,99359.94
2023-03-13T08:41:28.670Z,99362.50
2023-03-13T08:43:56.880Z,99358.63
2023-03-13T08:46:24.356Z,99356.94
2023-03-13T08:48:52.743Z,99348.06
2023-03-13T08:51:21.527Z,99356.03
2023-03-13T08:53:48.778Z,99343.91
2023-03-13T08:56:18.150Z,99345.28
2023-03-13T08:58:48.923Z,99338.84
2023-03-13T09:01:16.724Z,99324.34
2023-03-13T09:03:44.580Z,99314.63
2023-03-13T09:06:12.387Z,99331.69
2023-03-13T09:08:40.980Z,99334.41
2023-03-13T09:11:12.101Z,99330.91
2023-03-13T09:13:42.704Z,99321.25
2023-03-13T09:16:15.588Z,99337.19
2023-03-13T09:18:43.494Z,99323.63
2023-03-13T09:21:14.206Z,99329.88
2023-03-13T09:23:41.608Z,99325.31
2023-03-13T09:26:09.164Z,99332.28
2023-03-13T09:28:37.494Z,99326.25
2023-03-13T09:31:14.827Z,99317.44
2023-03-13T09:33:43.290Z,99319.06
2023-03-13T09:36:11.125Z,99314.56
2023-03-13T09:38:39.347Z,99299.28
2023-03-13T09:41:22.951Z,99302.50
2023-03-13T09:44:23.214Z,99299.84
2023-03-13T09:47:04.461Z,99294.59
2023-03-13T09:49:40.150Z,99297.66
2023-03-13T09:52:19.457Z,99294.38
2023-03-13T09:54:55.531Z,99286.97
2023-03-13T09:57:36.201Z,99305.94
2023-03-13T10:00:19.876Z,99295.44
2023-03-13T10:02:59.378Z,99289.50
2023-03-13T10:05:28.367Z,99290.09
2023-03-13T10:08:22.862Z,99294.22
2023-03-13T10:11:27.370Z,99302.16
2023-03-13T10:14:10.881Z,99286.22
2023-03-13T10:16:44.958Z,99286.25
2023-03-13T10:19:16.135Z,99265.31
2023-03-13T10:21:45.215Z,99284.38
2023-03-13T10:24:30.498Z,99278.56
2023-03-13T10:26:58.810Z,99268.09
2023-03-13T10:29:30.763Z,99268.78
2023-03-13T10:32:02.671Z,99270.47
2023-03-13T10:35:01.947Z,99261.25
2023-03-13T10:37:31.522Z,99262.50
2023-03-13T10:40:20.519Z,99252.63
2023-03-13T10:42:47.833Z,99252.13
2023-03-13T10:45:18.198Z,99249.22
2023-03-13T10:47:45.547Z,99250.31
2023-03-13T10:50:19.525Z,99246.28
2023-03-13T10:52:48.267Z,99247.66
2023-03-13T10:55:24.244Z,99247.00
2023-03-13T10:57:58.613Z,99240.97
2023-03-13T11:00:41.268Z,99255.69
2023-03-13T11:03:34.735Z,99238.44
2023-03-13T11:06:03.388Z,99231.47
2023-03-13T11:08:37.358Z,99219.47
2023-03-13T11:11:19.213Z,99207.25
2023-03-13T11:13:46.821Z,99211.19
2023-03-13T11:16:46.847Z,99202.66
2023-03-13T11:19:14.041Z,99195.16
2023-03-13T11:22:09.120Z,99205.03
2023-03-13T11:24:48.669Z,99204.19
2023-03-13T11:27:49.844Z,99197.44
2023-03-13T11:30:44.761Z,99197.84
2023-03-13T11:33:22.891Z,99206.81
2023-03-13T11:36:02.323Z,99195.94
2023-03-13T11:38:43.695Z,99187.47
2023-03-13T11:41:46.450Z,99201.94
2023-03-13T11:44:23.374Z,99203.00
2023-03-13T11:47:01.705Z,99199.41
2023-03-13T11:49:39.700Z,99198.63
2023-03-13T11:52:19.672Z,99195.44
2023-03-13T11:55:18.157Z,99195.31
2023-03-13T11:57:57.676Z,99187.47
2023-03-13T12:00:46.335Z,99185.91
2023-03-13T12:03:48.614Z,99192.09
2023-03-13T12:06:28.416Z,99196.50
2023-03-13T12:09:04.768Z,99182.19
2023-03-13T12:11:43.594Z,99184.38
2023-03-13T12:14:18.962Z,99188.00
2023-03-13T12:16:59.278Z,99182.44
2023-03-13T12:19:34.891Z,99178.94
2023-03-13T12:22:15.458Z,99177.97
2023-03-13T12:25:26.136Z,99177.53
2023-03-13T12:27:59.646Z,99164.81
2023-03-13T12:30:40.225Z,99174.72
2023-03-13T12:33:27.420Z,99155.22
2023-03-13T12:36:04.102Z,99173.19
2023-03-13T12:38:56.755Z,99163.44
2023-03-13T12:41:28.222Z,99157.66
2023-03-13T12:44:08.353Z,99143.56
2023-03-13T12:46:46.277Z,99151.50
2023-03-13T12:49:41.437Z,99151.97
2023-03-13T12:52:40.678Z,99143.66
2023-03-13T12:55:34.122Z,99136.19
2023-03-13T12:58:29.271Z,99133.31
2023-03-13T13:00:57.592Z,99122.13
2023-03-13T13:03:32.010Z,99132.09
2023-03-13T13:06:11.872Z,99116.34
2023-03-13T13:08:47.794Z,99119.84
2023-03-13T13:11:33.856Z,99120.53
2023-03-13T13:14:22.321Z,99130.41
2023-03-13T13:16:58.303Z,99123.69
2023-03-13T13:19:28.153Z,99102.50
2023-03-13T13:22:33.498Z,99111.63
2023-03-13T13:25:01.545Z,99112.81
2023-03-13T13:27:49.418Z,99113.19
2023-03-13T13:30:19.507Z,99109.19
2023-03-13T13:32:47.356Z,99094.25
2023-03-13T13:35:33.010Z,99104.72
2023-03-13T13:38:18.989Z,99103.28
2023-03-13T13:41:06.109Z,99106.56
2023-03-13T13:43:35.559Z,99112.38
2023-03-13T13:46:23.902Z,99104.63
2023-03-13T13:49:11.780Z,99104.03
2023-03-13T13:51:40.373Z,99101.81
2023-03-13T13:54:16.329Z,99084.97
2023-03-13T13:57:02.538Z,99090.59
2023-03-13T13:59:40.054Z,99087.31
2023-03-13T14:02:15.554Z,99089.63
2023-03-13T14:04:50.796Z,99077.78
2023-03-13T14:07:41.809Z,99082.16
2023-03-13T14:10:40.705Z,99074.19
2023-03-13T14:13:18.102Z,99084.31
2023-03-13T14:15:48.989Z,99084.56
2023-03-13T14:18:21.396Z,99084.66
2023-03-13T14:20:58.467Z,99092.63
2023-03-13T14:23:42.558Z,99073.13
2023-03-13T14:26:18.698Z,99074.72
2023-03-13T14:28:48.990Z,99074.88
2023-03-13T14:31:42.899Z,99084.13
2023-03-13T14:34:13.630Z,99077.38
2023-03-13T14:36:51.856Z,99073.44
2023-03-13T14:39:31.394Z,99070.72
2023-03-13T14:42:12.881Z,99064.41
2023-03-13T14:44:44.026Z,99069.81
2023-03-13T14:47:27.256Z,99061.13
2023-03-13T14:50:13.375Z,99056.28
2023-03-13T14:52:46.876Z,99059.38
2023-03-13T14:55:23.216Z,99052.59
2023-03-13T14:58:27.633Z,99048.34
2023-03-13T15:00:55.658Z,99043.19
2023-03-13T15:03:31.619Z,99042.69
2023-03-13T15:06:12.441Z,99048.28
2023-03-13T15:09:27.791Z,99040.91
2023-03-13T15:12:00.049Z,99041.97
2023-03-13T15:14:51.933Z,99027.50
2023-03-13T15:17:25.051Z,99030.41
2023-03-13T15:19:54.709Z,99028.72
2023-03-13T15:22:29.019Z,99033.19
2023-03-13T15:25:06.004Z,99017.91
2023-03-13T15:27:34.087Z,99019.97
2023-03-13T15:30:01.402Z,99023.34
2023-03-13T15:32:34.780Z,99018.41
2023-03-13T15:35:02.242Z,99015.50
2023-03-13T15:37:30.820Z,99014.06
2023-03-13T15:39:58.670Z,98990.47
2023-03-13T15:42:26.414Z,99006.72
2023-03-13T15:44:53.756Z,99007.53
2023-03-13T15:47:22.699Z,98996.06
2023-03-13T15:49:53.963Z,98979.31
2023-03-13T15:52:25.347Z,98979.81
2023-03-13T15:54:52.624Z,98976.34
2023-03-13T15:57:23.510Z,98974.16
2023-03-13T15:59:53.009Z,98979.56
2023-03-13T16:02:23.462Z,98987.97
2023-03-13T16:04:51.897Z,98984.44
2023-03-13T16:07:21.325Z,98965.56
2023-03-13T16:09:49.151Z,98951.38
2023-03-13T16:12:16.430Z,98953.50
2023-03-13T16:14:43.672Z,98946.53
2023-03-13T16:17:15.979Z,98943.84
2023-03-13T16:19:47.124Z,98937.13
2023-03-13T16:22:15.004Z,98937.22
2023-03-13T16:24:42.703Z,98933.00
2023-03-13T16:27:16.344Z,98934.81
2023-03-13T16:29:44.760Z,98922.31
2023-03-13T16:32:17.125Z,98921.59
2023-03-13T16:34:44.416Z,98916.94
2023-03-13T16:37:18.537Z,98918.41
2023-03-13T16:39:46.053Z,98913.81
2023-03-13T16:42:15.656Z,98894.56
2023-03-13T16:44:42.997Z,98905.06
2023-03-13T16:47:26.502Z,98902.19
2023-03-13T16:50:12.942Z,98896.44
2023-03-13T16:52:40.321Z,98900.53
2023-03-13T16:55:08.298Z,98890.38
2023-03-13T16:57:35.641Z,98885.13
2023-03-13T17:00:05.521Z,98887.28
2023-03-13T17:02:37.499Z,98883.13
2023-03-13T17:05:05.078Z,98889.97
2023-03-13T17:07:37.258Z,98888.53
2023-03-13T17:10:10.625Z,98881.78
2023-03-13T17:12:38.059Z,98882.03
2023-03-13T17:15:16.034Z,98873.03
2023-03-13T17:17:48.792Z,98880.75
2023-03-13T17:20:17.126Z,98887.59
2023-03-13T17:22:44.900Z,98887.94
2023-03-13T17:25:12.363Z,98888.91
2023-03-13T17:27:40.677Z,98891.31
2023-03-13T17:30:24.675Z,98896.84
2023-03-13T17:32:52.281Z,98902.41
2023-03-13T17:35:25.858Z,98907.09
2023-03-13T17:37:53.138Z,98893.47
2023-03-13T17:40:26.871Z,98892.28
2023-03-13T17:42:55.621Z,98903.34
2023-03-13T17:45:25.162Z,98887.84
2023-03-13T17:47:54.550Z,98888.56
2023-03-13T17:50:28.693Z,98900.78
2023-03-13T17:52:56.370Z,98892.97
2023-03-13T17:55:25.979Z,98893.47
2023-03-13T17:57:53.918Z,98880.38
2023-03-13T18:00:28.971Z,98875.94
2023-03-13T18:02:56.700Z,98884.09
2023-03-13T18:05:25.107Z,98895.72
2023-03-13T18:07:54.518Z,98893.84
2023-03-13T18:10:25.886Z,98884.00
2023-03-13T18:12:53.574Z,98881.47
2023-03-13T18:15:22.552Z,98873.88
2023-03-13T18:17:51.222Z,98873.16
2023-03-13T18:20:23.986Z,98877.84
2023-03-13T18:22:51.727Z,98881.59
2023-03-13T18:25:19.500Z,98874.59
2023-03-13T18:27:46.848Z,98869.78
2023-03-13T18:30:20.086Z,98880.25
2023-03-13T18:32:47.868Z,98878.31
2023-03-13T18:35:15.511Z,98870.25
2023-03-13T18:37:45.120Z,98866.78
2023-03-13T18:40:20.246Z,98855.38
2023-03-13T18:42:48.043Z,98856.06
2023-03-13T18:45:17.322Z,98850.78
2023-03-13T18:47:44.884Z,98855.84
2023-03-13T18:50:30.851Z,98863.41
2023-03-13T18:53:01.118Z,98868.84
2023-03-13T18:55:30.708Z,98863.31
2023-03-13T18:57:58.312Z,98857.53
2023-03-13T19:00:30.481Z,98861.97
2023-03-13T19:02:57.788Z,98857.63
2023-03-13T19:05:25.038Z,98844.28
2023-03-13T19:07:52.564Z,98845.50
2023-03-13T19:10:24.158Z,98830.47
2023-03-13T19:12:53.631Z,98821.94
2023-03-13T19:15:28.037Z,98821.22
2023-03-13T19:17:58.166Z,98808.72
2023-03-13T19:20:25.739Z,98809.56
2023-03-13T19:22:54.508Z,98815.44
2023-03-13T19:25:30.606Z,98811.94
2023-03-13T19:27:58.020Z,98816.38
2023-03-13T19:30:26.417Z,98807.16
2023-03-13T19:32:53.900Z,98803.03
2023-03-13T19:35:22.638Z,98799.22
2023-03-13T19:37:50.228Z,98796.81
2023-03-13T19:40:26.220Z,98792.34
2023-03-13T19:42:54.568Z,98792.25
2023-03-13T19:45:29.306Z,98792.00
2023-03-13T19:48:05.704Z,98787.81
2023-03-13T19:50:33.072Z,98796.47
2023-03-13T19:53:00.491Z,98797.16
2023-03-13T19:55:27.734Z,98805.22
2023-03-13T19:57:55.058Z,98803.78
2023-03-13T20:00:25.568Z,98799.47
2023-03-13T20:02:55.127Z,98784.44
2023-03-13T20:05:23.594Z,98786.84
2023-03-13T20:07:53.351Z,98776.50
2023-03-13T20:10:21.286Z,98786.72
2023-03-13T20:12:48.820Z,98775.81
2023-03-13T20:15:16.145Z,98774.34
2023-03-13T20:17:51.442Z,98772.19
2023-03-13T20:20:29.762Z,98763.16
2023-03-13T20:23:05.920Z,98763.19
2023-03-13T20:25:33.135Z,98764.00
2023-03-13T20:28:01.114Z,98758.47
2023-03-13T20:30:28.564Z,98758.13
2023-03-13T20:32:59.566Z,98755.50
2023-03-13T20:35:28.405Z,98747.66
2023-03-13T20:37:57.857Z,98734.47
2023-03-13T20:40:25.185Z,98742.03
2023-03-13T20:42:58.408Z,98739.75
2023-03-13T20:45:30.581Z,98741.56
2023-03-13T20:47:58.785Z,98752.97
2023-03-13T20:50:30.251Z,98758.00
2023-03-13T20:52:57.509Z,98769.41
2023-03-13T20:55:26.906Z,98770.63
2023-03-13T21:00:44.005Z,98764.13
2023-03-13T21:03:12.336Z,98772.28
2023-03-13T21:05:40.174Z,98762.41
2023-03-13T21:08:07.833Z,98770.13
2023-03-13T21:10:42.065Z,98774.31
2023-03-13T21:13:13.403Z,98768.91
2023-03-13T21:15:41.032Z,98770.94
2023-03-13T21:18:08.656Z,98771.44
2023-03-13T21:20:37.165Z,98767.38
2023-03-13T21:23:04.601Z,98775.06
2023-03-13T21:25:31.968Z,98786.34
2023-03-13T21:28:05.618Z,98787.06
2023-03-13T21:30:32.857Z,98791.16
2023-03-13T21:33:00.208Z,98804.50
2023-03-13T21:35:27.544Z,98798.84
2023-03-13T21:37:55.039Z,98792.59
2023-03-13T21:40:22.415Z,98775.75
2023-03-13T21:42:56.331Z,98776.38
2023-03-13T21:45:30.334Z,98773.13
2023-03-13T21:47:59.487Z,98762.41
2023-03-13T21:50:26.932Z,98768.41
2023-03-13T21:52:54.213Z,98754.25
2023-03-13T21:55:21.569Z,98755.09
2023-03-13T21:57:51.562Z,98757.50
2023-03-13T22:00:20.153Z,98753.66
2023-03-13T22:02:47.441Z,98750.41
2023-03-13T22:05:16.896Z,98755.22
2023-03-13T22:07:47.508Z,98755.97
2023-03-13T22:10:18.954Z,98761.13
2023-03-13T22:12:46.190Z,98758.94
2023-03-13T22:15:13.582Z,98749.44
2023-03-13T22:17:40.891Z,98743.84
2023-03-13T22:20:09.216Z,98735.06
2023-03-13T22:22:36.728Z,98728.81
2023-03-13T22:25:04.247Z,98742.75
2023-03-13T22:27:33.052Z,98728.81
2023-03-13T22:30:02.636Z,98720.16
2023-03-13T22:32:30.510Z,98735.69
2023-03-13T22:34:57.862Z,98752.34
2023-03-13T22:37:26.791Z,98740.72
2023-03-13T22:39:54.845Z,98737.09
2023-03-13T22:42:22.831Z,98731.81
2023-03-13T22:44:50.118Z,98731.81
2023-03-13T22:47:17.302Z,98717.41
2023-03-13T22:49:44.684Z,98718.72
2023-03-13T22:52:11.957Z,98710.69
2023-03-13T22:54:39.213Z,98721.00
2023-03-13T22:57:06.596Z,98733.72
2023-03-13T22:59:33.909Z,98715.91
2023-03-13T23:02:01.146Z,98700.59
2023-03-13T23:04:28.354Z,98722.22
2023-03-13T23:06:55.825Z,98715.81
2023-03-13T23:09:23.595Z,98726.47
2023-03-13T23:11:50.792Z,98713.03
2023-03-13T23:14:19.275Z,98706.31
2023-03-13T23:16:46.670Z,98704.63
2023-03-13T23:19:13.930Z,98705.09
2023-03-13T23:21:41.540Z,98696.84
2023-03-13T23:24:08.998Z,98687.34
2023-03-13T23:26:36.282Z,98698.38
2023-03-13T23:29:03.835Z,98678.00
2023-03-13T23:31:31.138Z,98687.72
2023-03-13T23:33:59.225Z,98696.56
2023-03-13T23:36:26.506Z,98692.69
2023-03-13T23:38:54.876Z,98679.13
2023-03-13T23:41:22.484Z,98675.72
2023-03-13T23:43:50.038Z,98687.25
2023-03-13T23:46:22.519Z,98681.47
2023-03-13T23:48:54.983Z,98686.00
2023-03-13T23:51:22.930Z,98694.03
2023-03-13T23:53:52.299Z,98698.69
2023-03-13T23:56:19.623Z,98700.59
2023-03-13T23:58:46.866Z,98706.09
